Bryant, IN (47326)

08:13 AM EDT del 22 Ottobre 2014 (GMT -0400)
K9UO | Change Station
CLOSE
Current Station
Stazione meteo personale
Location: Portland, IN
Altitudine: 940 ft
Stazioni meteo nelle vicinanze

Alt. 940 ft 40.40 °N, 84.98 °W | Updated 0 second ago

Coperto
Coperto
42.7 °F
Sembra 43 °F
N
0.0
Vento Variabile Vento da NE
Gusts 3.0 mph

Oggi
Massima -- | Minima -- °F
--% Possibilità di precip.
Ieri
Massima -- | Minima -- °F
Precip. -- in
7:58 AM 6:49 PM
Luna calante, 2% visible
Pressione 30.29 in
Visibilità 10.0 miglia
Nuvole Coperto 2600 ft
Raffreddamento del vento 43 °F
Punto di rugiada 39 °F
Umidità 87%
Piovosità 0.00 in
Spessore del manto nevoso Non disponibile.
Raggi UV 0 fuori da 12
Polline .80 fuori da 12
Qualità dell'aria Non disponibile.
Flu Activity Sporadic
METAR KMIE 221153Z 01006KT 10SM OVC026 06/03 A3029 RMK AO2 SLP256 T00560028 10067 20039 51014

More Conditions Fewer Conditions

Pressione 30.29 in
Visibilità 10.0 miglia
Nuvole Coperto 2600 ft
Raffreddamento del vento 43 °F
Punto di rugiada 39 °F
Umidità 87%
Piovosità 0.00 in
Spessore del manto nevoso Non disponibile.
Raggi UV 0 fuori da 12
Polline .80 fuori da 12
Qualità dell'aria Non disponibile.
Flu Activity Sporadic
METAR KMIE 221153Z 01006KT 10SM OVC026 06/03 A3029 RMK AO2 SLP256 T00560028 10067 20039 51014

More Conditions Fewer Conditions

10-Day Weather Forecast

Almanac

Astronomia

Oct. 22, 2014 Alba Tramonto
Ora attuale 07:58 EDT 18:49 EDT
Crepuscolo civile 07:30 EDT 19:17 EDT
Crepuscolo nautico 06:58 EDT 19:49 EDT
Crepuscolo astronomico 06:27 EDT 20:20 EDT
Luna 06:38 EDT 18:15 EDT
Estensione della luce visibile 11h 46m
Lunghezza del giorno
10h 51m
Tomorrow will be 2m 31s shorter.
Luna calante, 2% of the Moon is Illuminated
Oggi
Luna calante
Ott 23
Nuovo
Ott 30
Primo quarto
Nov 6
Luna piena
Nov 14
Ultimo quarto

Gli estremi di oggi

State Highs State Lows

Community

WunderPhotos

Upload Photos

1,763,906 foto caricate!

Nearby

Profondità neve

Stazione Profondità Altitudine
Non sono state evidenziate nuove nevicate

Attività sismica

Città  Distanza Mag. Data & Ora
Non sono state riportate attività sismiche nelle vicinanze.
Minimo Magnitudo Mostrato è 2.5.

Temperature delle acque costiere

Località Temperatura
Nessun dato dalle stazioni

Stazioni meteo nelle vicinanze